createdAt,value
2022-10-05T00:01:47.663Z,5.60
2022-10-05T00:04:23.118Z,5.50
2022-10-05T00:07:08.562Z,5.50
2022-10-05T00:09:35.743Z,5.50
2022-10-05T00:12:14.490Z,5.50
2022-10-05T00:14:41.989Z,5.30
2022-10-05T00:17:15.974Z,5.40
2022-10-05T00:19:43.966Z,5.40
2022-10-05T00:22:22.066Z,5.40
2022-10-05T00:24:54.908Z,5.40
2022-10-05T00:27:24.474Z,5.40
2022-10-05T00:29:53.802Z,5.40
2022-10-05T00:32:20.537Z,5.40
2022-10-05T00:34:47.502Z,5.40
2022-10-05T00:37:14.877Z,5.40
2022-10-05T00:39:42.779Z,5.40
2022-10-05T00:42:40.571Z,5.40
2022-10-05T00:45:15.855Z,5.40
2022-10-05T00:48:00.163Z,5.40
2022-10-05T00:50:33.123Z,5.40
2022-10-05T00:53:23.773Z,5.50
2022-10-05T00:56:12.534Z,5.40
2022-10-05T00:59:16.102Z,5.30
2022-10-05T01:01:47.528Z,5.30
2022-10-05T01:04:41.128Z,5.20
2022-10-05T01:07:29.751Z,5.10
2022-10-05T01:10:04.324Z,5.10
2022-10-05T01:12:40.126Z,5.20
2022-10-05T01:15:34.952Z,5.40
2022-10-05T01:18:18.056Z,5.40
2022-10-05T01:21:02.840Z,5.30
2022-10-05T01:23:48.121Z,5.20
2022-10-05T01:26:33.517Z,5.30
2022-10-05T01:29:18.575Z,5.30
2022-10-05T01:32:14.174Z,5.20
2022-10-05T01:35:29.118Z,5.20
2022-10-05T01:38:24.069Z,5.20
2022-10-05T01:41:16.560Z,5.10
2022-10-05T01:43:48.029Z,5.10
2022-10-05T01:46:36.504Z,5.00
2022-10-05T01:49:34.609Z,5.10
2022-10-05T01:52:32.234Z,5.20
2022-10-05T01:55:24.932Z,5.20
2022-10-05T01:58:16.663Z,5.10
2022-10-05T02:00:54.887Z,5.00
2022-10-05T02:03:28.368Z,5.00
2022-10-05T02:06:09.699Z,5.00
2022-10-05T02:08:43.238Z,5.00
2022-10-05T02:11:14.685Z,5.00
2022-10-05T02:13:45.984Z,4.90
2022-10-05T02:16:16.806Z,4.90
2022-10-05T02:18:54.788Z,4.90
2022-10-05T02:21:22.225Z,4.90
2022-10-05T02:23:53.516Z,4.90
2022-10-05T02:26:21.210Z,4.80
2022-10-05T02:28:52.865Z,4.80
2022-10-05T02:31:25.526Z,4.80
2022-10-05T02:33:52.285Z,4.80
2022-10-05T02:36:31.085Z,4.90
2022-10-05T02:38:59.235Z,4.90
2022-10-05T02:41:38.545Z,5.00
2022-10-05T02:44:10.997Z,5.00
2022-10-05T02:46:43.592Z,4.90
2022-10-05T02:49:28.553Z,4.90
2022-10-05T02:52:35.485Z,4.80
2022-10-05T02:55:26.330Z,4.70
2022-10-05T02:57:58.012Z,4.70
2022-10-05T03:00:29.624Z,4.60
2022-10-05T03:03:28.433Z,4.60
2022-10-05T03:06:10.548Z,4.60
2022-10-05T03:09:00.174Z,4.60
2022-10-05T03:11:51.551Z,4.50
2022-10-05T03:14:43.226Z,4.50
2022-10-05T03:17:19.455Z,4.60
2022-10-05T03:20:02.602Z,4.60
2022-10-05T03:22:49.018Z,4.60
2022-10-05T03:25:42.094Z,4.60
2022-10-05T03:28:37.071Z,4.70
2022-10-05T03:31:14.726Z,4.60
2022-10-05T03:33:55.837Z,4.70
2022-10-05T03:36:36.524Z,4.60
2022-10-05T03:39:07.604Z,4.70
2022-10-05T03:41:42.739Z,4.70
2022-10-05T03:44:32.658Z,4.60
2022-10-05T03:47:20.968Z,4.50
2022-10-05T03:50:16.124Z,4.50
2022-10-05T03:52:52.102Z,4.40
2022-10-05T03:55:47.615Z,4.50
2022-10-05T03:58:25.589Z,4.50
2022-10-05T04:01:00.666Z,4.40
2022-10-05T04:03:33.844Z,4.40
2022-10-05T04:06:25.447Z,4.30
2022-10-05T04:08:56.167Z,4.20
2022-10-05T04:11:30.419Z,4.20
2022-10-05T04:14:06.915Z,4.20
2022-10-05T04:16:44.015Z,4.20
2022-10-05T04:19:22.111Z,4.20
2022-10-05T04:22:06.377Z,4.20
2022-10-05T04:24:56.102Z,4.10
2022-10-05T04:27:30.925Z,4.20
2022-10-05T04:30:08.072Z,4.20
2022-10-05T04:32:57.325Z,4.20
2022-10-05T04:35:46.445Z,4.20
2022-10-05T04:38:36.036Z,4.30
2022-10-05T04:41:29.666Z,4.30
2022-10-05T04:44:24.028Z,4.30
2022-10-05T04:47:20.601Z,4.20
2022-10-05T04:50:02.845Z,4.20
2022-10-05T04:53:01.552Z,4.10
2022-10-05T04:55:40.249Z,4.20
2022-10-05T04:58:42.060Z,4.30
2022-10-05T05:01:40.624Z,4.20
2022-10-05T05:04:32.225Z,4.10
2022-10-05T05:07:15.209Z,4.00
2022-10-05T05:09:54.062Z,4.00
2022-10-05T05:12:31.881Z,4.10
2022-10-05T05:15:22.684Z,4.10
2022-10-05T05:18:11.858Z,4.10
2022-10-05T05:20:50.674Z,4.10
2022-10-05T05:23:37.731Z,4.10
2022-10-05T05:26:25.794Z,4.10
2022-10-05T05:29:09.003Z,4.20
2022-10-05T05:31:50.749Z,4.10
2022-10-05T05:34:33.133Z,4.10
2022-10-05T05:37:25.930Z,4.10
2022-10-05T05:39:59.098Z,4.00
2022-10-05T05:42:42.939Z,4.00
2022-10-05T05:45:46.462Z,4.10
2022-10-05T05:48:33.212Z,4.20
2022-10-05T05:51:11.900Z,4.20
2022-10-05T05:53:50.557Z,4.10
2022-10-05T05:56:46.206Z,4.20
2022-10-05T05:59:38.437Z,4.30
2022-10-05T06:02:16.057Z,4.30
2022-10-05T06:05:24.008Z,4.20
2022-10-05T06:07:53.687Z,4.30
2022-10-05T06:10:38.266Z,4.50
2022-10-05T06:13:17.902Z,4.60
2022-10-05T06:16:12.878Z,4.60
2022-10-05T06:18:43.255Z,4.70
2022-10-05T06:21:21.298Z,4.90
2022-10-05T06:24:26.298Z,4.90
2022-10-05T06:27:16.260Z,4.90
2022-10-05T06:30:03.368Z,5.10
2022-10-05T06:32:52.749Z,5.10
2022-10-05T06:35:49.486Z,5.30
2022-10-05T06:38:27.787Z,5.40
2022-10-05T06:41:06.645Z,5.60
2022-10-05T06:43:40.212Z,5.80
2022-10-05T06:46:22.868Z,6.00
2022-10-05T06:49:25.235Z,6.20
2022-10-05T06:52:25.229Z,6.40
2022-10-05T06:55:28.640Z,6.60
2022-10-05T06:58:20.858Z,6.80
2022-10-05T07:00:55.958Z,7.00
2022-10-05T07:03:37.705Z,7.20
2022-10-05T07:06:31.689Z,7.40
2022-10-05T07:09:27.802Z,7.60
2022-10-05T07:12:08.471Z,7.80
2022-10-05T07:14:57.587Z,7.90
2022-10-05T07:17:37.430Z,8.20
2022-10-05T07:20:36.630Z,8.40
2022-10-05T07:23:31.397Z,8.60
2022-10-05T07:26:02.882Z,8.80
2022-10-05T07:29:10.668Z,9.00
2022-10-05T07:32:16.440Z,9.20
2022-10-05T07:35:09.912Z,9.40
2022-10-05T07:37:57.951Z,9.70
2022-10-05T07:40:56.261Z,9.90
2022-10-05T07:44:02.353Z,10.10
2022-10-05T07:46:53.329Z,10.30
2022-10-05T07:49:39.532Z,10.50
2022-10-05T07:52:39.856Z,10.60
2022-10-05T07:55:31.532Z,10.70
2022-10-05T07:58:13.011Z,10.80
2022-10-05T08:00:48.142Z,10.90
2022-10-05T08:03:29.601Z,11.00
2022-10-05T08:05:58.882Z,11.20
2022-10-05T08:08:53.728Z,11.20
2022-10-05T08:11:36.403Z,11.40
2022-10-05T08:14:38.074Z,11.60
2022-10-05T08:17:40.721Z,11.80
2022-10-05T08:20:29.457Z,12.00
2022-10-05T08:23:08.798Z,12.30
2022-10-05T08:25:59.881Z,12.40
2022-10-05T08:28:47.051Z,12.60
2022-10-05T08:31:35.490Z,12.80
2022-10-05T08:34:30.926Z,13.10
2022-10-05T08:37:09.170Z,13.30
2022-10-05T08:39:40.843Z,13.40
2022-10-05T08:42:41.336Z,13.90
2022-10-05T08:45:34.005Z,14.10
2022-10-05T08:48:39.067Z,14.50
2022-10-05T08:51:23.921Z,14.70
2022-10-05T08:54:28.524Z,14.90
2022-10-05T08:57:25.412Z,15.10
2022-10-05T09:00:04.180Z,15.40
2022-10-05T09:03:02.973Z,15.70
2022-10-05T09:05:35.535Z,15.80
2022-10-05T09:08:33.553Z,15.90
2022-10-05T09:11:32.285Z,16.00
2022-10-05T09:14:23.942Z,16.10
2022-10-05T09:17:05.588Z,16.10
2022-10-05T09:19:57.196Z,16.20
2022-10-05T09:22:38.633Z,16.40
2022-10-05T09:25:35.579Z,16.50
2022-10-05T09:28:25.168Z,16.60
2022-10-05T09:31:23.401Z,16.70
2022-10-05T09:34:25.892Z,16.80
2022-10-05T09:37:08.620Z,16.80
2022-10-05T13:53:36.691Z,22.00
2022-10-05T13:56:31.050Z,21.50
2022-10-05T13:59:21.875Z,21.40
2022-10-05T14:02:04.731Z,21.50
2022-10-05T14:04:53.587Z,21.60
2022-10-05T14:07:33.956Z,21.50
2022-10-05T14:10:02.301Z,21.60
2022-10-05T14:12:36.419Z,21.80
2022-10-05T14:15:19.058Z,22.00
2022-10-05T14:17:47.792Z,22.30
2022-10-05T14:20:34.120Z,23.00
2022-10-05T14:23:19.767Z,24.10
2022-10-05T14:25:54.008Z,25.30
2022-10-05T14:28:31.465Z,26.20
2022-10-05T14:31:12.800Z,26.50
2022-10-05T14:33:40.074Z,27.10
2022-10-05T14:36:20.339Z,27.00
2022-10-05T14:38:57.949Z,26.80
2022-10-05T14:41:28.263Z,27.50
2022-10-05T14:44:05.400Z,27.80
2022-10-05T14:46:34.819Z,27.80
2022-10-05T14:49:17.031Z,27.80
2022-10-05T14:51:43.728Z,27.10
2022-10-05T14:54:41.219Z,25.60
2022-10-05T14:57:25.396Z,24.60
2022-10-05T15:00:08.777Z,24.20
2022-10-05T15:02:59.861Z,24.70
2022-10-05T15:05:41.837Z,25.60
2022-10-05T15:08:08.706Z,25.60
2022-10-05T15:11:04.926Z,24.90
2022-10-05T15:13:41.766Z,24.80
2022-10-05T15:16:24.779Z,25.40
2022-10-05T15:19:15.954Z,26.70
2022-10-05T15:22:10.751Z,27.40
2022-10-05T15:24:45.424Z,27.10
2022-10-05T15:27:43.554Z,27.00
2022-10-05T15:30:10.616Z,26.20
2022-10-05T15:32:41.576Z,26.10
2022-10-05T15:35:36.671Z,26.60
2022-10-05T15:38:26.461Z,27.40
2022-10-05T15:40:59.094Z,28.10
2022-10-05T15:43:36.141Z,27.20
2022-10-05T15:46:34.105Z,26.40
2022-10-05T15:49:17.282Z,24.90
2022-10-05T15:51:50.765Z,23.60
2022-10-05T15:54:41.805Z,22.70
2022-10-05T15:57:20.192Z,22.40
2022-10-05T16:00:07.678Z,22.40
2022-10-05T16:02:41.525Z,22.70
2022-10-05T16:05:56.587Z,23.20
2022-10-05T16:08:55.689Z,23.10
2022-10-05T16:11:50.753Z,22.50
2022-10-05T16:14:32.556Z,21.60
2022-10-05T16:17:18.267Z,20.90
2022-10-05T16:19:56.989Z,20.30
2022-10-05T16:22:49.579Z,19.90
2022-10-05T16:25:23.739Z,19.60
2022-10-05T16:28:29.130Z,19.20
2022-10-05T16:31:06.712Z,19.00
2022-10-05T16:33:43.289Z,18.70
2022-10-05T16:36:43.027Z,18.50
2022-10-05T16:39:21.725Z,18.40
2022-10-05T16:42:11.777Z,18.20
2022-10-05T16:45:19.378Z,17.90
2022-10-05T16:47:58.001Z,17.80
2022-10-05T16:50:37.358Z,17.60
2022-10-05T16:53:19.085Z,17.50
2022-10-05T16:55:51.694Z,17.30
2022-10-05T16:58:41.609Z,17.10
2022-10-05T17:01:08.389Z,17.00
2022-10-05T17:04:13.282Z,16.90
2022-10-05T17:07:00.241Z,16.80
2022-10-05T17:10:04.820Z,16.60
2022-10-05T17:13:13.640Z,16.40
2022-10-05T17:16:23.923Z,16.10
2022-10-05T17:19:21.547Z,15.90
2022-10-05T17:22:24.502Z,15.50
2022-10-05T17:25:11.115Z,15.40
2022-10-05T17:28:22.972Z,15.20
2022-10-05T17:30:58.622Z,14.90
2022-10-05T17:33:29.034Z,14.90
2022-10-05T17:36:08.335Z,14.70
2022-10-05T17:38:35.012Z,14.60
2022-10-05T17:41:19.327Z,14.50
2022-10-05T17:44:19.022Z,14.30
2022-10-05T17:46:56.539Z,14.30
2022-10-05T17:49:46.240Z,14.20
2022-10-05T17:52:43.866Z,14.00
2022-10-05T17:55:27.237Z,13.80
2022-10-05T17:57:58.558Z,13.80
2022-10-05T18:00:41.887Z,13.60
2022-10-05T18:03:34.874Z,13.50
2022-10-05T18:06:20.380Z,13.40
2022-10-05T18:08:47.306Z,13.30
2022-10-05T18:11:35.266Z,13.20
2022-10-05T18:14:17.902Z,13.30
2022-10-05T18:17:03.912Z,13.20
2022-10-05T18:19:32.391Z,12.90
2022-10-05T18:22:00.853Z,12.80
2022-10-05T18:24:41.103Z,12.60
2022-10-05T18:27:47.322Z,12.70
2022-10-05T18:30:23.219Z,12.60
2022-10-05T18:33:19.276Z,12.50
2022-10-05T18:35:59.053Z,12.60
2022-10-05T18:38:52.968Z,12.40
2022-10-05T18:41:34.076Z,12.50
2022-10-05T18:44:14.259Z,12.50
2022-10-05T18:47:10.461Z,12.40
2022-10-05T18:50:12.846Z,12.40
2022-10-05T18:52:53.625Z,12.40
2022-10-05T18:55:42.888Z,12.40
2022-10-05T18:58:25.881Z,12.20
2022-10-05T19:01:27.906Z,12.30
2022-10-05T19:04:14.004Z,12.20
2022-10-05T19:07:12.127Z,12.20
2022-10-05T19:09:52.534Z,12.00
2022-10-05T19:12:44.664Z,11.80
2022-10-05T19:15:24.789Z,11.80
2022-10-05T19:18:13.976Z,11.80
2022-10-05T19:21:18.113Z,11.80
2022-10-05T19:24:04.763Z,11.70
2022-10-05T19:26:49.919Z,11.60
2022-10-05T19:29:33.359Z,11.60
2022-10-05T19:32:06.520Z,11.60
2022-10-05T19:35:01.200Z,11.70
2022-10-05T19:37:45.286Z,11.80
2022-10-05T19:40:27.718Z,11.70
2022-10-05T19:43:41.643Z,11.60
2022-10-05T19:46:23.458Z,11.60
2022-10-05T19:48:53.102Z,11.50
2022-10-05T19:51:30.530Z,11.50
2022-10-05T19:54:21.933Z,11.40
2022-10-05T19:56:52.828Z,11.40
2022-10-05T19:59:24.466Z,11.30
2022-10-05T20:01:54.038Z,11.30
2022-10-05T20:04:45.251Z,11.20
2022-10-05T20:07:21.663Z,11.20
2022-10-05T20:09:53.597Z,11.20
2022-10-05T20:12:22.954Z,11.20
2022-10-05T20:15:25.736Z,11.10
2022-10-05T20:18:11.219Z,10.90
2022-10-05T20:20:44.536Z,10.70
2022-10-05T20:23:25.298Z,10.60
2022-10-05T20:26:11.459Z,10.60
2022-10-05T20:28:38.325Z,10.60
2022-10-05T20:31:08.590Z,10.60
2022-10-05T20:33:35.449Z,10.60
2022-10-05T20:36:03.637Z,10.60
2022-10-05T20:38:31.667Z,10.50
2022-10-05T20:40:58.635Z,10.40
2022-10-05T20:43:25.324Z,10.40
2022-10-05T20:45:53.767Z,10.40
2022-10-05T20:48:20.645Z,10.50
2022-10-05T20:50:47.385Z,10.50
2022-10-05T20:53:14.335Z,10.50
2022-10-05T20:55:41.012Z,10.50
2022-10-05T20:58:09.011Z,10.40
2022-10-05T21:00:54.355Z,10.30
2022-10-05T21:03:21.125Z,10.20
2022-10-05T21:05:47.873Z,10.10
2022-10-05T21:08:17.795Z,10.20
2022-10-05T21:10:44.506Z,10.20
2022-10-05T21:13:11.229Z,10.20
2022-10-05T21:15:38.217Z,10.20
2022-10-05T21:18:05.032Z,10.20
2022-10-05T21:20:31.774Z,10.30
2022-10-05T21:22:58.476Z,10.30
2022-10-05T21:25:25.220Z,10.30
2022-10-05T21:27:54.074Z,10.40
2022-10-05T21:30:20.948Z,10.40
2022-10-05T21:32:47.712Z,10.40
2022-10-05T21:35:14.761Z,10.30
2022-10-05T21:37:41.702Z,10.20
2022-10-05T21:40:09.217Z,10.20
2022-10-05T21:42:36.083Z,10.20
2022-10-05T21:45:02.946Z,10.10
2022-10-05T21:47:30.197Z,10.10
2022-10-05T21:49:57.260Z,10.10
2022-10-05T21:52:32.993Z,10.20
2022-10-05T21:54:59.812Z,10.20
2022-10-05T21:57:26.665Z,10.20
2022-10-05T21:59:53.413Z,10.30
2022-10-05T22:02:20.238Z,10.40
2022-10-05T22:04:46.979Z,10.30
2022-10-05T22:07:18.550Z,10.20
2022-10-05T22:09:51.224Z,10.30
2022-10-05T22:12:19.770Z,10.40
2022-10-05T22:14:47.180Z,10.40
2022-10-05T22:17:32.183Z,10.40
2022-10-05T22:19:59.452Z,10.50
2022-10-05T22:22:27.649Z,10.60
2022-10-05T22:24:54.898Z,10.70
2022-10-05T22:27:23.662Z,10.90
2022-10-05T22:29:51.332Z,11.00
2022-10-05T22:32:18.170Z,11.10
2022-10-05T22:34:44.968Z,11.20
2022-10-05T22:37:13.060Z,11.40
2022-10-05T22:39:40.325Z,11.50
2022-10-05T22:42:07.614Z,11.50
2022-10-05T22:44:34.789Z,11.60
2022-10-05T22:47:02.882Z,11.60
2022-10-05T22:49:29.707Z,11.70
2022-10-05T22:51:56.399Z,11.80
2022-10-05T22:54:27.461Z,11.80
2022-10-05T22:56:56.084Z,11.80
2022-10-05T22:59:22.748Z,11.80
2022-10-05T23:01:49.490Z,11.90
2022-10-05T23:04:16.301Z,12.00
2022-10-05T23:06:43.033Z,12.00
2022-10-05T23:09:09.717Z,11.90
2022-10-05T23:11:36.445Z,12.00
2022-10-05T23:14:03.145Z,11.90
2022-10-05T23:16:30.023Z,11.70
2022-10-05T23:18:57.319Z,11.50
2022-10-05T23:21:26.868Z,11.20
2022-10-05T23:23:53.580Z,11.00
2022-10-05T23:26:23.170Z,10.80
2022-10-05T23:28:50.273Z,10.70
2022-10-05T23:31:24.024Z,10.40
2022-10-05T23:33:51.681Z,10.20
2022-10-05T23:36:27.690Z,10.10
2022-10-05T23:38:54.730Z,9.90
2022-10-05T23:41:21.554Z,9.90
2022-10-05T23:43:48.728Z,9.80
2022-10-05T23:46:16.136Z,9.80
2022-10-05T23:48:43.188Z,9.80
2022-10-05T23:51:12.036Z,9.60
2022-10-05T23:53:38.996Z,9.60
2022-10-05T23:56:06.261Z,9.60
2022-10-05T23:58:33.093Z,9.60
